createdAt,value
2023-03-21T00:01:16.529Z,3.67
2023-03-21T00:03:46.558Z,5.20
2023-03-21T00:06:16.701Z,4.80
2023-03-21T00:08:45.070Z,4.35
2023-03-21T00:11:14.204Z,4.80
2023-03-21T00:13:44.247Z,4.32
2023-03-21T00:16:23.159Z,3.33
2023-03-21T00:18:55.741Z,4.13
2023-03-21T00:24:16.948Z,3.60
2023-03-21T00:26:45.323Z,4.57
2023-03-21T00:29:14.935Z,3.85
2023-03-21T00:31:43.233Z,4.10
2023-03-21T00:36:44.955Z,4.63
2023-03-21T00:39:14.220Z,3.85
2023-03-21T00:41:43.682Z,4.85
2023-03-21T00:44:15.866Z,4.32
2023-03-21T00:46:57.392Z,3.67
2023-03-21T00:49:38.220Z,4.30
2023-03-21T00:52:17.136Z,5.30
2023-03-21T00:54:53.158Z,4.65
2023-03-21T00:57:29.325Z,5.43
2023-03-21T01:00:10.877Z,5.00
2023-03-21T01:02:43.497Z,4.72
2023-03-21T01:05:33.467Z,4.40
2023-03-21T01:08:02.925Z,5.05
2023-03-21T01:10:32.783Z,4.30
2023-03-21T01:13:01.037Z,3.75
2023-03-21T01:15:32.778Z,6.13
2023-03-21T01:18:01.173Z,4.78
2023-03-21T01:20:29.674Z,4.60
2023-03-21T01:22:57.978Z,4.35
2023-03-21T01:25:26.349Z,4.35
2023-03-21T01:27:54.792Z,3.33
2023-03-21T01:30:24.779Z,3.90
2023-03-21T01:32:54.744Z,4.68
2023-03-21T01:35:23.021Z,3.83
2023-03-21T01:37:51.861Z,5.88
2023-03-21T01:40:23.424Z,4.35
2023-03-21T01:42:57.323Z,7.57
2023-03-21T01:46:14.445Z,5.03
2023-03-21T01:49:03.341Z,4.35
2023-03-21T01:51:36.093Z,5.63
2023-03-21T01:54:08.107Z,4.35
2023-03-21T01:56:39.310Z,4.88
2023-03-21T01:59:12.770Z,4.80
2023-03-21T02:02:14.764Z,4.93
2023-03-21T02:04:58.315Z,5.05
2023-03-21T02:07:35.811Z,4.63
2023-03-21T02:10:13.340Z,4.03
2023-03-21T02:12:47.054Z,4.82
2023-03-21T02:15:16.416Z,3.60
2023-03-21T02:18:14.600Z,4.97
2023-03-21T02:21:29.488Z,4.72
2023-03-21T02:24:38.369Z,3.55
2023-03-21T02:27:14.174Z,5.43
2023-03-21T02:30:08.761Z,4.80
2023-03-21T02:33:03.797Z,4.53
2023-03-21T02:36:00.589Z,5.63
2023-03-21T02:38:38.579Z,5.20
2023-03-21T02:41:19.638Z,6.13
2023-03-21T02:43:57.300Z,4.68
2023-03-21T02:46:42.909Z,4.72
2023-03-21T02:49:21.623Z,4.82
2023-03-21T02:51:53.084Z,4.50
2023-03-21T02:54:38.234Z,4.15
2023-03-21T02:57:08.259Z,7.47
2023-03-21T02:59:44.537Z,3.88
2023-03-21T03:02:25.722Z,4.28
2023-03-21T03:04:55.580Z,4.20
2023-03-21T03:07:35.498Z,5.75
2023-03-21T03:10:28.372Z,4.20
2023-03-21T03:13:06.913Z,3.83
2023-03-21T03:15:45.786Z,4.18
2023-03-21T03:18:21.169Z,5.47
2023-03-21T03:21:00.030Z,5.93
2023-03-21T03:23:34.971Z,3.92
2023-03-21T03:26:09.727Z,5.18
2023-03-21T03:28:42.398Z,5.35
2023-03-21T03:31:21.940Z,8.88
2023-03-21T03:33:59.236Z,4.10
2023-03-21T03:36:36.964Z,4.85
2023-03-21T03:39:17.553Z,4.55
2023-03-21T03:42:10.216Z,6.40
2023-03-21T03:44:46.704Z,4.85
2023-03-21T03:47:32.398Z,4.75
2023-03-21T03:50:10.276Z,4.75
2023-03-21T03:52:55.314Z,5.07
2023-03-21T03:55:28.272Z,3.72
2023-03-21T03:58:06.378Z,4.93
2023-03-21T04:00:37.217Z,4.95
2023-03-21T04:03:07.316Z,4.80
2023-03-21T04:05:36.598Z,5.57
2023-03-21T04:08:06.627Z,4.43
2023-03-21T04:10:42.058Z,4.63
2023-03-21T04:13:12.894Z,4.57
2023-03-21T04:15:46.883Z,4.40
2023-03-21T04:18:17.884Z,4.40
2023-03-21T04:20:48.697Z,4.20
2023-03-21T04:23:18.998Z,3.90
2023-03-21T04:25:56.442Z,3.63
2023-03-21T04:28:36.184Z,3.95
2023-03-21T04:31:26.466Z,3.95
2023-03-21T04:34:09.971Z,3.15
2023-03-21T04:36:44.604Z,4.75
2023-03-21T04:39:15.169Z,5.13
2023-03-21T04:41:47.736Z,3.65
2023-03-21T04:44:19.360Z,4.50
2023-03-21T04:46:48.369Z,6.60
2023-03-21T04:49:16.675Z,4.82
2023-03-21T04:51:46.276Z,4.38
2023-03-21T04:54:19.157Z,4.00
2023-03-21T04:56:47.463Z,5.15
2023-03-21T04:59:18.014Z,3.78
2023-03-21T05:01:46.975Z,4.43
2023-03-21T05:04:15.942Z,4.35
2023-03-21T05:06:45.186Z,5.47
2023-03-21T05:09:14.280Z,4.13
2023-03-21T05:11:42.949Z,5.03
2023-03-21T05:14:19.489Z,3.78
2023-03-21T05:16:53.627Z,4.28
2023-03-21T05:19:25.020Z,4.03
2023-03-21T05:21:53.897Z,4.88
2023-03-21T05:24:26.485Z,4.28
2023-03-21T05:26:56.318Z,4.13
2023-03-21T05:29:30.841Z,4.05
2023-03-21T05:32:03.443Z,5.20
2023-03-21T05:34:32.410Z,5.63
2023-03-21T05:37:02.163Z,5.07
2023-03-21T05:39:49.408Z,5.97
2023-03-21T05:42:27.246Z,4.10
2023-03-21T05:44:57.692Z,6.47
2023-03-21T05:47:30.810Z,5.93
2023-03-21T05:50:01.699Z,3.85
2023-03-21T05:52:31.589Z,5.00
2023-03-21T05:55:00.880Z,4.45
2023-03-21T05:57:29.755Z,4.60
2023-03-21T06:00:08.549Z,5.22
2023-03-21T06:02:45.903Z,4.03
2023-03-21T06:05:43.468Z,6.35
2023-03-21T06:08:19.069Z,5.30
2023-03-21T06:10:48.097Z,6.68
2023-03-21T06:13:16.925Z,8.95
2023-03-21T06:15:47.002Z,5.00
2023-03-21T06:18:20.074Z,5.43
2023-03-21T06:20:57.533Z,4.28
2023-03-21T06:23:25.954Z,6.97
2023-03-21T06:25:54.998Z,4.47
2023-03-21T06:28:26.869Z,5.60
2023-03-21T06:30:56.754Z,5.65
2023-03-21T06:33:27.395Z,8.30
2023-03-21T06:35:57.673Z,5.70
2023-03-21T06:38:27.169Z,5.68
2023-03-21T06:40:55.596Z,5.50
2023-03-21T06:43:26.718Z,5.53
2023-03-21T06:45:56.445Z,4.47
2023-03-21T06:48:24.938Z,6.60
2023-03-21T06:50:54.495Z,8.52
2023-03-21T06:53:27.350Z,8.23
2023-03-21T06:56:15.973Z,6.45
2023-03-21T06:58:46.644Z,10.43
2023-03-21T07:01:32.110Z,7.30
2023-03-21T07:04:06.323Z,7.20
2023-03-21T07:06:34.960Z,12.52
2023-03-21T07:09:05.488Z,6.78
2023-03-21T07:14:06.529Z,7.40
2023-03-21T07:16:36.490Z,6.90
2023-03-21T07:19:04.791Z,6.32
2023-03-21T07:21:33.289Z,7.07
2023-03-21T07:24:01.809Z,6.43
2023-03-21T07:26:30.144Z,7.20
2023-03-21T07:29:00.131Z,5.90
2023-03-21T07:31:29.651Z,6.90
2023-03-21T07:33:59.363Z,5.57
2023-03-21T07:36:28.189Z,5.28
2023-03-21T07:38:56.492Z,6.03
2023-03-21T07:41:26.089Z,6.75
2023-03-21T07:43:54.396Z,6.47
2023-03-21T07:46:22.834Z,7.93
2023-03-21T07:48:51.355Z,7.75
2023-03-21T07:51:20.986Z,8.45
2023-03-21T07:53:49.540Z,5.43
2023-03-21T07:56:17.813Z,7.60
2023-03-21T07:58:46.107Z,8.15
2023-03-21T08:01:14.357Z,10.52
2023-03-21T08:03:43.500Z,5.97
2023-03-21T08:06:12.300Z,6.40
2023-03-21T08:08:41.998Z,8.20
2023-03-21T08:11:11.864Z,6.03
2023-03-21T08:13:40.209Z,5.90
2023-03-21T08:16:09.869Z,7.75
2023-03-21T08:18:38.335Z,6.50
2023-03-21T08:21:09.350Z,8.25
2023-03-21T08:23:38.118Z,10.38
2023-03-21T08:26:09.401Z,7.47
2023-03-21T08:28:39.452Z,7.05
2023-03-21T08:31:09.365Z,6.05
2023-03-21T08:33:38.331Z,8.35
2023-03-21T08:36:08.090Z,7.32
2023-03-21T08:38:38.402Z,8.82
2023-03-21T08:41:08.624Z,9.23
2023-03-21T08:43:36.910Z,8.60
2023-03-21T08:46:05.448Z,9.13
2023-03-21T08:48:34.049Z,9.10
2023-03-21T08:51:02.333Z,7.00
2023-03-21T08:53:30.741Z,7.70
2023-03-21T08:55:59.055Z,7.70
2023-03-21T08:58:28.698Z,7.90
2023-03-21T09:00:57.034Z,11.35
2023-03-21T09:03:27.380Z,8.52
2023-03-21T09:05:55.943Z,9.38
2023-03-21T09:08:24.576Z,10.77
2023-03-21T09:10:54.637Z,7.63
2023-03-21T09:13:23.309Z,7.85
2023-03-21T09:15:54.168Z,8.90
2023-03-21T09:18:38.896Z,9.43
2023-03-21T09:21:12.789Z,6.30
2023-03-21T09:23:41.401Z,10.05
2023-03-21T09:26:10.641Z,6.75
2023-03-21T09:28:39.255Z,7.03
2023-03-21T09:31:11.394Z,6.03
2023-03-21T09:33:41.455Z,7.55
2023-03-21T09:36:12.998Z,5.25
2023-03-21T09:38:43.106Z,5.05
2023-03-21T09:41:22.320Z,7.05
2023-03-21T09:44:08.200Z,5.95
2023-03-21T09:46:46.906Z,6.47
2023-03-21T09:49:20.425Z,4.82
2023-03-21T09:51:52.950Z,5.68
2023-03-21T09:54:27.348Z,8.63
2023-03-21T09:56:58.862Z,5.50
2023-03-21T09:59:33.584Z,5.63
2023-03-21T10:02:05.686Z,6.95
2023-03-21T10:04:34.118Z,5.45
2023-03-21T10:07:04.047Z,5.13
2023-03-21T10:09:33.435Z,6.78
2023-03-21T10:12:06.402Z,6.35
2023-03-21T10:14:37.428Z,4.78
2023-03-21T10:17:18.089Z,5.28
2023-03-21T10:19:48.287Z,4.28
2023-03-21T10:22:16.515Z,6.53
2023-03-21T10:24:44.913Z,4.85
2023-03-21T10:27:14.629Z,6.75
2023-03-21T10:29:45.435Z,5.38
2023-03-21T10:32:18.006Z,6.13
2023-03-21T10:34:52.170Z,4.90
2023-03-21T10:37:20.791Z,5.18
2023-03-21T10:39:52.223Z,4.43
2023-03-21T10:42:23.954Z,4.25
2023-03-21T10:47:24.367Z,4.10
2023-03-21T10:50:09.941Z,6.28
2023-03-21T10:52:43.516Z,4.80
2023-03-21T10:55:22.881Z,6.25
2023-03-21T10:57:58.851Z,3.22
2023-03-21T11:00:31.408Z,4.75
2023-03-21T11:03:01.680Z,4.57
2023-03-21T11:05:37.985Z,5.05
2023-03-21T11:08:08.249Z,4.18
2023-03-21T11:11:10.969Z,5.05
2023-03-21T11:13:41.913Z,3.83
2023-03-21T11:16:13.252Z,6.55
2023-03-21T11:18:45.617Z,4.72
2023-03-21T11:21:15.740Z,4.97
2023-03-21T11:23:48.019Z,5.20
2023-03-21T11:26:24.144Z,5.60
2023-03-21T11:36:33.848Z,5.82
2023-03-21T11:39:13.763Z,5.20
2023-03-21T11:41:42.314Z,4.50
2023-03-21T11:44:26.644Z,6.30
2023-03-21T11:46:55.730Z,4.57
2023-03-21T11:49:24.980Z,4.82
2023-03-21T11:52:13.963Z,3.97
2023-03-21T11:54:58.229Z,8.07
2023-03-21T11:57:38.109Z,3.50
2023-03-21T12:00:17.880Z,4.15
2023-03-21T12:03:23.870Z,4.03
2023-03-21T12:05:55.534Z,6.15
2023-03-21T12:11:09.742Z,5.00
2023-03-21T12:13:48.010Z,4.05
2023-03-21T12:16:50.392Z,4.25
2023-03-21T12:19:38.376Z,3.65
2023-03-21T12:22:14.339Z,4.18
2023-03-21T12:24:52.044Z,3.70
2023-03-21T12:27:30.145Z,4.05
2023-03-21T12:30:12.746Z,4.38
2023-03-21T12:33:04.474Z,3.63
2023-03-21T12:35:44.650Z,4.25
2023-03-21T12:38:18.963Z,4.40
2023-03-21T12:41:21.706Z,4.65
2023-03-21T12:43:55.518Z,3.75
2023-03-21T12:46:28.572Z,3.60
2023-03-21T12:49:01.457Z,3.13
2023-03-21T12:51:33.034Z,4.03
2023-03-21T12:56:36.464Z,3.22
2023-03-21T12:59:09.672Z,2.85
2023-03-21T13:01:40.880Z,3.45
2023-03-21T13:04:32.934Z,3.47
2023-03-21T13:07:04.766Z,2.85
2023-03-21T13:09:38.456Z,3.03
2023-03-21T13:12:21.709Z,4.97
2023-03-21T13:15:07.928Z,3.60
2023-03-21T13:17:45.619Z,1.95
2023-03-21T13:20:21.653Z,4.03
2023-03-21T13:22:50.074Z,3.15
2023-03-21T13:25:20.893Z,2.92
2023-03-21T13:27:55.501Z,4.00
2023-03-21T13:30:26.446Z,5.78
2023-03-21T13:33:05.724Z,4.80
2023-03-21T13:35:41.190Z,5.65
2023-03-21T13:38:16.392Z,4.45
2023-03-21T13:40:49.036Z,4.95
2023-03-21T13:43:41.364Z,3.78
2023-03-21T13:46:11.658Z,5.38
2023-03-21T13:49:00.328Z,4.45
2023-03-21T13:51:47.273Z,5.85
2023-03-21T13:54:24.196Z,5.57
2023-03-21T13:57:00.695Z,3.75
2023-03-21T13:59:43.272Z,4.07
2023-03-21T14:02:36.269Z,4.53
2023-03-21T14:05:08.167Z,4.13
2023-03-21T14:07:41.441Z,3.63
2023-03-21T14:10:21.437Z,4.55
2023-03-21T14:12:50.547Z,3.63
2023-03-21T14:15:23.225Z,3.28
2023-03-21T14:17:52.738Z,3.92
2023-03-21T14:20:23.489Z,3.17
2023-03-21T14:22:51.893Z,6.03
2023-03-21T14:25:23.239Z,3.97
2023-03-21T14:27:56.517Z,3.63
2023-03-21T14:30:28.851Z,4.03
2023-03-21T14:32:59.414Z,3.80
2023-03-21T14:35:31.320Z,4.63
2023-03-21T14:38:02.957Z,4.38
2023-03-21T14:43:05.019Z,3.20
2023-03-21T14:45:37.644Z,2.88
2023-03-21T14:48:07.668Z,2.95
2023-03-21T14:50:43.844Z,3.85
2023-03-21T14:53:16.422Z,3.22
2023-03-21T14:55:47.192Z,5.53
2023-03-21T14:58:18.008Z,2.67
2023-03-21T15:00:50.658Z,2.77
2023-03-21T15:03:21.225Z,3.95
2023-03-21T15:05:49.754Z,3.25
2023-03-21T15:08:20.278Z,3.47
2023-03-21T15:11:06.825Z,2.70
2023-03-21T15:13:38.816Z,3.22
2023-03-21T15:16:14.966Z,2.50
2023-03-21T15:18:44.513Z,2.58
2023-03-21T15:21:18.365Z,3.47
2023-03-21T15:23:48.343Z,3.30
2023-03-21T15:26:18.168Z,4.15
2023-03-21T15:28:48.189Z,3.45
2023-03-21T15:31:20.536Z,3.15
2023-03-21T15:33:49.256Z,2.97
2023-03-21T15:36:22.494Z,3.60
2023-03-21T15:38:51.966Z,5.18
2023-03-21T15:41:31.503Z,2.55
2023-03-21T15:44:07.274Z,2.75
2023-03-21T15:46:42.728Z,2.80
2023-03-21T15:49:19.078Z,4.03
2023-03-21T15:51:50.579Z,3.67
2023-03-21T15:54:24.705Z,4.90
2023-03-21T15:56:56.068Z,3.25
2023-03-21T15:59:28.595Z,3.38
2023-03-21T16:01:59.013Z,4.63
2023-03-21T16:04:27.501Z,6.18
2023-03-21T16:07:00.227Z,3.08
2023-03-21T16:09:29.298Z,3.55
2023-03-21T16:11:58.986Z,4.20
2023-03-21T16:14:28.650Z,4.72
2023-03-21T16:16:59.095Z,4.82
2023-03-21T16:19:29.785Z,5.80
2023-03-21T16:21:58.067Z,4.17
2023-03-21T16:24:26.276Z,5.57
2023-03-21T16:26:56.889Z,5.00
2023-03-21T16:29:25.236Z,3.95
2023-03-21T16:31:53.524Z,4.43
2023-03-21T16:34:23.172Z,4.80
2023-03-21T16:36:51.362Z,5.40
2023-03-21T16:39:21.652Z,5.13
2023-03-21T16:41:50.740Z,6.05
2023-03-21T16:44:19.484Z,4.90
2023-03-21T16:46:48.284Z,4.07
2023-03-21T16:49:20.505Z,6.15
2023-03-21T16:51:50.139Z,5.03
2023-03-21T16:54:18.859Z,4.30
2023-03-21T16:56:50.522Z,5.90
2023-03-21T17:01:48.513Z,23.35
2023-03-21T17:04:18.482Z,412.08
2023-03-21T17:06:49.252Z,362.38
2023-03-21T17:09:21.299Z,431.57
2023-03-21T17:11:50.088Z,349.25
2023-03-21T17:14:18.795Z,345.70
2023-03-21T17:16:47.660Z,291.90
2023-03-21T17:19:18.109Z,241.02
2023-03-21T17:21:47.051Z,232.73
2023-03-21T17:24:15.760Z,140.68
2023-03-21T17:26:45.405Z,130.05
2023-03-21T17:29:15.383Z,140.30
2023-03-21T17:31:47.270Z,143.75
2023-03-21T17:34:15.674Z,139.15
2023-03-21T17:36:46.236Z,147.20
2023-03-21T17:39:19.262Z,152.93
2023-03-21T17:41:49.060Z,115.45
2023-03-21T17:44:17.384Z,105.25
2023-03-21T17:46:46.040Z,109.65
2023-03-21T17:49:15.875Z,98.25
2023-03-21T17:51:46.897Z,91.30
2023-03-21T17:54:15.628Z,85.38
2023-03-21T17:56:44.009Z,81.57
2023-03-21T17:59:15.069Z,75.03
2023-03-21T18:01:43.892Z,71.93
2023-03-21T18:04:12.180Z,69.22
2023-03-21T18:06:40.716Z,65.05
2023-03-21T18:09:11.757Z,61.90
2023-03-21T18:11:41.709Z,56.70
2023-03-21T18:17:05.962Z,53.25
2023-03-21T18:19:39.019Z,47.63
2023-03-21T18:22:07.455Z,47.22
2023-03-21T18:24:36.117Z,45.70
2023-03-21T18:27:04.658Z,44.30
2023-03-21T18:30:19.778Z,44.85
2023-03-21T18:32:23.165Z,41.25
2023-03-21T18:34:51.720Z,35.47
2023-03-21T18:37:20.852Z,35.85
2023-03-21T18:39:50.309Z,27.65
2023-03-21T18:42:19.778Z,24.60
2023-03-21T18:44:53.587Z,26.48
2023-03-21T18:47:22.901Z,19.60
2023-03-21T18:52:41.443Z,16.45
2023-03-21T18:55:10.875Z,17.27
2023-03-21T18:57:40.956Z,14.85
2023-03-21T19:00:13.802Z,14.40
2023-03-21T19:02:47.032Z,12.52
2023-03-21T19:05:17.563Z,16.23
2023-03-21T19:07:46.538Z,10.98
2023-03-21T19:10:18.954Z,12.35
2023-03-21T19:12:48.252Z,11.50
2023-03-21T19:15:19.951Z,12.80
2023-03-21T19:20:37.878Z,12.57
2023-03-21T19:23:08.216Z,10.07
2023-03-21T19:25:38.010Z,11.07
2023-03-21T19:28:06.661Z,12.48
2023-03-21T19:30:36.788Z,9.45
2023-03-21T19:33:06.471Z,10.48
2023-03-21T19:35:37.295Z,10.10
2023-03-21T19:38:06.171Z,8.02
2023-03-21T19:40:34.954Z,10.20
2023-03-21T19:43:18.575Z,9.25
2023-03-21T19:45:53.755Z,9.88
2023-03-21T19:48:23.420Z,8.70
2023-03-21T19:51:24.392Z,10.75
2023-03-21T19:53:40.598Z,12.35
2023-03-21T19:56:20.701Z,7.30
2023-03-21T19:58:51.662Z,9.93
2023-03-21T20:01:21.851Z,8.73
2023-03-21T20:03:50.249Z,11.02
2023-03-21T20:06:19.031Z,12.27
2023-03-21T20:09:27.696Z,8.98
2023-03-21T20:11:36.408Z,8.48
2023-03-21T20:14:05.413Z,8.70
2023-03-21T20:16:36.827Z,8.55
2023-03-21T20:21:44.434Z,10.27
2023-03-21T20:24:16.878Z,66.15
2023-03-21T20:26:45.815Z,218.38
2023-03-21T20:32:05.117Z,338.67
2023-03-21T20:34:33.700Z,283.05
2023-03-21T20:37:03.197Z,209.90
2023-03-21T20:39:31.822Z,237.82
2023-03-21T20:42:00.161Z,348.77
2023-03-21T20:44:51.914Z,315.88
2023-03-21T20:47:18.729Z,400.63
2023-03-21T20:49:49.397Z,304.92
2023-03-21T20:55:09.096Z,207.77
2023-03-21T20:57:38.755Z,159.85
2023-03-21T21:00:14.865Z,115.18
2023-03-21T21:02:45.882Z,115.95
2023-03-21T21:05:25.801Z,120.57
2023-03-21T21:07:56.686Z,143.88
2023-03-21T21:10:25.963Z,174.55
2023-03-21T21:12:54.457Z,179.95
2023-03-21T21:15:22.701Z,138.02
2023-03-21T21:18:06.447Z,102.15
2023-03-21T21:20:35.869Z,74.88
2023-03-21T21:23:04.273Z,60.20
2023-03-21T21:25:34.022Z,47.17
2023-03-21T21:28:02.717Z,33.40
2023-03-21T21:30:31.694Z,24.80
2023-03-21T21:33:01.757Z,23.05
2023-03-21T21:35:30.278Z,17.10
2023-03-21T21:37:58.544Z,15.88
2023-03-21T21:40:26.821Z,12.43
2023-03-21T21:42:55.225Z,10.60
2023-03-21T21:45:23.464Z,10.70
2023-03-21T21:47:51.967Z,12.93
2023-03-21T21:50:22.491Z,11.45
2023-03-21T21:52:54.329Z,10.32
2023-03-21T21:55:23.225Z,10.05
2023-03-21T21:57:53.105Z,9.23
2023-03-21T22:00:21.977Z,10.70
2023-03-21T22:02:50.611Z,7.93
2023-03-21T22:05:19.412Z,10.43
2023-03-21T22:07:49.807Z,10.82
2023-03-21T22:10:18.234Z,10.13
2023-03-21T22:12:46.707Z,10.43
2023-03-21T22:15:18.015Z,8.40
2023-03-21T22:17:46.999Z,8.70
2023-03-21T22:20:18.023Z,7.90
2023-03-21T22:22:48.312Z,8.65
2023-03-21T22:25:17.941Z,8.52
2023-03-21T22:27:47.244Z,8.32
2023-03-21T22:30:17.391Z,9.07
2023-03-21T22:32:51.499Z,8.90
2023-03-21T22:35:24.939Z,10.45
2023-03-21T22:37:54.580Z,13.90
2023-03-21T22:40:22.992Z,11.98
2023-03-21T22:42:51.438Z,9.43
2023-03-21T22:45:19.948Z,9.45
2023-03-21T22:47:48.517Z,9.18
2023-03-21T22:50:16.824Z,9.25
2023-03-21T22:52:45.293Z,8.70
2023-03-21T22:55:14.961Z,7.63
2023-03-21T22:57:43.274Z,9.43
2023-03-21T23:00:13.721Z,7.63
2023-03-21T23:02:42.522Z,8.77
2023-03-21T23:05:12.261Z,7.63
2023-03-21T23:07:40.588Z,9.27
2023-03-21T23:10:12.111Z,9.57
2023-03-21T23:15:11.281Z,8.15
2023-03-21T23:17:39.637Z,7.35
2023-03-21T23:20:09.838Z,11.32
2023-03-21T23:22:38.635Z,7.82
2023-03-21T23:25:07.882Z,7.40
2023-03-21T23:27:37.039Z,8.43
2023-03-21T23:30:08.536Z,10.00
2023-03-21T23:35:05.855Z,6.28
2023-03-21T23:37:34.221Z,7.22
2023-03-21T23:40:02.573Z,7.28
2023-03-21T23:42:31.209Z,7.72
2023-03-21T23:44:59.545Z,7.82
2023-03-21T23:47:30.945Z,6.85
2023-03-21T23:49:59.381Z,6.93
2023-03-21T23:52:27.654Z,10.68
2023-03-21T23:54:55.937Z,5.57
2023-03-21T23:57:24.216Z,6.80
2023-03-21T23:59:56.058Z,8.50
